• Join FlightAware (Why Join?)
  • Login
  • US Flag 
10:16AM EST


 

Airport Tracker/Info


-or-


 

Live Flight TrackerFlight Track Log ✈ AAY854 ✈ 09-May-2014 ✈ KPIE - KSBN

Flight Track Log - Related Links

Times and Time Zones

All times are in EDT time to prevent confusion due to time zone crossing. See the AAY854 flight status page for this flight to view local times or setup timezone preferences in your user account.

Time Position Orientation Groundspeed Altitude Reporting Facility
EDT Latitude Longitude Course Direction KTS MPH feet Rate Location/Type
05:13PM 27.8833 -82.6833 180° South 166 191 900  Level Tampa TRACON
05:13PM 27.8667 -82.6833 180° South 177 204 1,900 1,800 Climbing Tampa TRACON
05:14PM 27.8500 -82.7500 254° West 246 283 3,700 1,980 Climbing Tampa TRACON
05:16PM 27.9850 -82.7914 345° North 276 318 7,600 2,160 Climbing Jacksonville Center
05:17PM 28.0347 -82.7956 356° North 294 338 9,200 1,920 Climbing Miami Center
05:18PM 28.1211 -82.8042 355° North 306 352 11,000 1,500 Climbing Miami Center
05:19PM 28.2439 -82.8200 354° North 368 423 12,300 1,800 Climbing Miami Center
05:20PM 28.3608 -82.8322 355° North 410 472 14,800 2,220 Climbing Miami Center
05:21PM 28.4764 -82.8428 355° North 412 474 17,000 1,860 Climbing Miami Center
05:22PM 28.6067 -82.8533 356° North 430 495 18,700 1,680 Climbing Miami Center
05:23PM 28.7292 -82.8644 355° North 438 504 20,600 1,620 Climbing Miami Center
05:24PM 28.8511 -82.8711 357° North 431 496 22,200 1,380 Climbing Jacksonville Center
05:25PM 28.9783 -82.8783 357° North 438 504 23,500 1,260 Climbing Jacksonville Center
05:26PM 29.1058 -82.8903 355° North 449 517 24,800 1,200 Climbing Jacksonville Center
05:27PM 29.2311 -82.9283 345° North 455 524 25,900 600 Climbing Jacksonville Center
05:28PM 29.3564 -82.9689 344° North 461 531 26,000 780 Climbing Jacksonville Center
05:29PM 29.4814 -83.0094 344° North 466 536 27,500 1,620 Climbing Jacksonville Center
05:30PM 29.6067 -83.0550 342° North 466 536 29,300 1,200 Climbing Jacksonville Center
05:31PM 29.7214 -83.1056 339° North 453 521 30,000 300 Climbing Jacksonville Center
05:32PM 29.8361 -83.1583 338° Northwest 448 516 30,000  Level Jacksonville Center
05:33PM 29.9531 -83.2139 338° Northwest 448 516 30,000 360 Level Jacksonville Center
05:34PM 30.0844 -83.2742 338° Northwest 458 527 30,800 900 Climbing Jacksonville Center
05:35PM 30.2011 -83.3275 338° Northwest 458 527 31,800 600 Climbing Jacksonville Center
05:36PM 30.3136 -83.3811 338° Northwest 447 514 32,000 60 Climbing Jacksonville Center
05:37PM 30.4261 -83.4347 338° Northwest 442 509 32,000  Level Jacksonville Center
05:38PM 30.5386 -83.4883 338° Northwest 437 503 32,000 -60 Level Jacksonville Center
05:39PM 30.6492 -83.5397 338° Northwest 437 503 31,900  Descending Jacksonville Center
05:40PM 30.7489 -83.5864 338° Northwest 437 503 32,000  Climbing Jacksonville Center
05:41PM 30.8594 -83.6381 338° Northwest 432 497 32,000  Level Jacksonville Center
05:42PM 30.9697 -83.6944 336° Northwest 432 497 32,000  Level Jacksonville Center
05:43PM 31.0822 -83.7464 338° Northwest 432 497 32,000  Level Jacksonville Center
05:45PM 31.2872 -83.8444 338° Northwest 441 507 32,000  Level Atlanta Center
05:46PM 31.4022 -83.9028 337° Northwest 436 502 32,000  Level Atlanta Center
05:47PM 31.5169 -83.9561 338° Northwest 436 502 32,000  Level Atlanta Center
05:48PM 31.6256 -83.9853 347° North 436 502 32,000  Level Atlanta Center
05:49PM 31.7528 -84.0119 350° North 441 507 32,000  Level Atlanta Center
05:50PM 31.8761 -84.0389 349° North 451 519 32,000  Level Atlanta Center
05:51PM 32.0033 -84.0658 350° North 451 519 32,000  Level Atlanta Center
05:52PM 32.1244 -84.0928 349° North 446 513 32,000  Level Atlanta Center
05:53PM 32.2475 -84.1222 349° North 446 513 32,000  Level Atlanta Center
05:54PM 32.3728 -84.1494 350° North 446 513 32,000  Level Atlanta Center
05:55PM 32.4958 -84.1767 349° North 446 513 32,000  Level Atlanta Center
05:56PM 32.6211 -84.2042 350° North 446 513 32,000  Level Atlanta Center
05:57PM 32.7464 -84.2339 349° North 446 513 32,000  Level Atlanta Center
05:58PM 32.8694 -84.2614 349° North 446 513 32,000  Level Atlanta Center
05:59PM 32.9944 -84.2914 349° North 446 513 32,000  Level Atlanta Center
06:00PM 33.1197 -84.3217 349° North 446 513 32,000  Level Atlanta Center
06:01PM 33.2408 -84.3517 348° North 446 513 32,000  Level Atlanta Center
06:02PM 33.3658 -84.3772 350° North 446 513 32,000  Level Atlanta Center
06:03PM 33.4931 -84.4050 350° North 446 513 32,000  Level Atlanta Center
06:04PM 33.6142 -84.4353 348° North 446 513 32,000  Level Atlanta Center
06:05PM 33.7414 -84.4661 349° North 457 526 32,000  Level Atlanta Center
06:06PM 33.8894 -84.4992 350° North 474 545 32,000  Level Atlanta Center
06:07PM 34.0103 -84.5325 347° North 460 529 32,000  Level Atlanta Center
06:08PM 34.1292 -84.5583 350° North 460 529 32,000  Level Atlanta Center
06:09PM 34.2564 -84.5892 349° North 466 536 32,000  Level Atlanta Center
06:10PM 34.3858 -84.6050 354° North 466 536 32,000  Level Atlanta Center
06:11PM 34.5172 -84.6136 357° North 466 536 32,000  Level Atlanta Center
06:12PM 34.6486 -84.6272 355° North 466 536 32,000  Level Atlanta Center
06:13PM 34.7819 -84.6381 356° North 471 542 32,000  Level Atlanta Center
06:14PM 34.9136 -84.6492 356° North 471 542 32,000  Level Atlanta Center
06:15PM 35.0450 -84.6603 356° North 471 542 32,000  Level Atlanta Center
06:16PM 35.1764 -84.6714 356° North 471 542 32,000  Level Atlanta Center
06:17PM 35.3097 -84.6828 356° North 477 549 32,000  Level Atlanta Center
06:18PM 35.4411 -84.6939 356° North 477 549 32,000  Level Atlanta Center
06:19PM 35.5767 -84.7053 356° North 477 549 32,000  Level Atlanta Center
06:21PM 35.8708 -84.7286 356° North 481 554 32,000  Level Indianapolis Center
06:22PM 36.0303 -84.7431 356° North 487 560 32,000  Level Indianapolis Center
06:23PM 36.1642 -84.7564 355° North 487 560 32,000  Level Indianapolis Center
06:24PM 36.2994 -84.7683 356° North 487 560 32,000  Level Indianapolis Center
06:25PM 36.4344 -84.7808 356° North 487 560 32,000  Level Indianapolis Center
06:26PM 36.5697 -84.7964 355° North 487 560 32,000  Level Indianapolis Center
06:27PM 36.7069 -84.8008 359° North 497 572 32,000  Level Indianapolis Center
06:28PM 36.8464 -84.7881 North 503 579 32,000  Level Indianapolis Center
06:29PM 37.0147 -84.7714 North 503 579 32,000  Level Indianapolis Center
06:30PM 37.1514 -84.7608 North 505 581 32,000  Level Indianapolis Center
06:31PM 37.2858 -84.7864 351° North 493 567 32,000  Level Indianapolis Center
06:32PM 37.4267 -84.8081 353° North 497 572 32,000  Level Indianapolis Center
06:33PM 37.5633 -84.8300 353° North 498 573 32,000  Level Indianapolis Center
06:34PM 37.7225 -84.8569 352° North 496 571 32,000  Level Indianapolis Center
06:35PM 37.8592 -84.8800 352° North 496 571 32,000  Level Indianapolis Center
06:36PM 37.9978 -84.9028 353° North 496 571 32,000  Level Indianapolis Center
06:37PM 38.1356 -84.9258 353° North 496 571 32,000  Level Indianapolis Center
06:38PM 38.2753 -84.9489 353° North 498 573 32,000  Level Indianapolis Center
06:40PM 38.4156 -84.9708 353° North 500 575 32,000  Level Indianapolis Center
06:41PM 38.5544 -84.9925 353° North 500 575 32,000  Level Indianapolis Center
06:42PM 38.7006 -85.0200 352° North 500 575 32,000 -180 Level Indianapolis Center
06:43PM 38.8292 -85.0764 341° North 495 570 31,700 -900 Descending Indianapolis Center
06:44PM 38.9597 -85.1303 342° North 495 570 30,200 -1,680 Descending Indianapolis Center
06:45PM 39.0883 -85.1836 342° North 492 566 28,300 -1,860 Descending Indianapolis Center
06:46PM 39.2392 -85.2450 343° North 480 552 26,400 -1,140 Descending Indianapolis Center
06:47PM 39.3561 -85.2953 342° North 456 525 26,000 -240 Descending Indianapolis Center
06:48PM 39.4767 -85.3456 342° North 456 525 26,000  Level Indianapolis Center
06:49PM 39.5961 -85.3953 342° North 456 525 26,000 -420 Level Indianapolis Center
06:50PM 39.7136 -85.4450 342° North 453 521 25,200 -1,200 Descending Indianapolis Center
06:51PM 39.8269 -85.4942 342° North 441 507 23,600 -1,500 Descending Indianapolis Center
06:52PM 39.9567 -85.5597 339° North 426 490 22,100 -840 Descending Indianapolis Center
06:53PM 40.0542 -85.6314 331° Northwest 409 471 22,000 -60 Descending Indianapolis Center
06:54PM 40.1514 -85.6997 332° Northwest 405 466 22,000  Level Indianapolis Center
06:55PM 40.2594 -85.7428 343° North 412 474 22,000  Level Indianapolis Center
06:56PM 40.3711 -85.7853 344° North 415 478 22,000 -240 Level Indianapolis Center
06:56PM 40.4375 -85.8100 344° North 419 482 21,700 -1,200 Descending Chicago Center
06:57PM 40.5467 -85.8519 344° North 415 478 20,200 -1,440 Descending Chicago Center
06:59PM 40.6533 -85.8942 343° North 407 468 18,800 -1,680 Descending Chicago Center
07:00PM 40.7692 -85.9394 344° North 396 456 16,800 -1,860 Descending Chicago Center
07:01PM 40.8725 -85.9814 343° North 392 451 15,000 -1,680 Descending Chicago Center
07:02PM 40.9681 -86.0200 343° North 364 419 13,300 -1,920 Descending Chicago Center
07:03PM 41.0625 -86.0561 344° North 356 410 11,100 -1,140 Descending Chicago Center
07:04PM 41.1556 -86.0903 345° North 349 402 11,000 -60 Descending Chicago Center
07:05PM 41.2736 -86.1156 351° North 356 410 11,000 -300 Level Chicago Center
07:06PM 41.3689 -86.1386 350° North 351 404 10,400 -900 Descending Chicago Center
07:07PM 41.4536 -86.1589 350° North 314 361 9,200 -1,680 Descending Chicago Center
07:08PM 41.5322 -86.1778 350° North 290 334 7,000 -1,920 Descending Chicago Center
07:09PM 41.6064 -86.1728 North 277 319 5,300 -1,560 Descending Chicago Center
07:10PM 41.6722 -86.1544 12° North 251 289 3,800 -1,260 Descending Chicago Center
07:11PM 41.7142 -86.1825 333° Northwest 211 243 2,700 -1,020 Descending Chicago Center
07:12PM 41.7042 -86.2264 253° West 155 178 1,800 -720 Descending Chicago Center
07:13PM 41.7017 -86.2761 266° West 137 158 1,300 -540 Descending Chicago Center